Jordan, MT

8:07 AM MST on February 27, 2017 (GMT -0700)
Wokal-Glasgow International | | Change Station
Active Advisory: Winter Weather Advisory

Elev 2293 ft 48.21 °N, 106.61 °W | Updated 14 minutes ago

Overcast
Overcast
13 °F
Feels Like 2 °F
N
8
Wind Variable Wind from ENE

Today
High -- | Low -- °F
--% Chance of Precip.
Yesterday
High -- | Low -- °F
Precip. -- in
Pressure 29.90 in
Visibility 5.0 miles
Clouds Few 2000 ft
Overcast 7000 ft
Windchill 2 °F
Dew Point 8 °F
Humidity 81%
Rainfall 0.05 in
Snow Depth Not available.
6:50 AM 5:50 PM
New Moon, 1% visible
METAR KGGW 271453Z AUTO 06007KT 5SM HZ FEW020 OVC070 M11/M13 A2977 RMK AO2 SNE38 SLP125 P0000 60001 T11061133 53003
Pressure 29.90 in
Visibility 5.0 miles
Clouds Few 2000 ft
Overcast 7000 ft
Windchill 2 °F
Dew Point 8 °F
Humidity 81%
Rainfall 0.05 in
Snow Depth Not available.
6:50 AM 5:50 PM
New Moon, 1% visible
METAR KGGW 271453Z AUTO 06007KT 5SM HZ FEW020 OVC070 M11/M13 A2977 RMK AO2 SNE38 SLP125 P0000 60001 T11061133 53003

Get Your Daily Forecast Email!

Thanks for signing up!

Be on the lookout for a verification email in your inbox.

You'll start receiving the daily forecast at 8 AM.

×

10-Day Weather Forecast

Almanac

Astronomy

Feb. 27, 2017 Rise Set
Actual Time
Civil Twilight
Nautical Twilight
Astronomical Twilight
Moon
Length of Visible Light
Length of Day
Tomorrow will be .
, % of the Moon is Illuminated

Today's Extremes

State Highs State Lows

Community

WunderPhotos

Upload Photos

1,962,540 photos uploaded!

WunderBlog® & News

Nearby

Air Quality

  Air Quality AQ Index Pollutant
Not available.

Snow Depth

Station Depth Elevation

Earthquake Activity

City Distance Mag. Time & Date
Minimum magnitude displayed is 2.5.

Coastal Water Temperatures

Place Temperature

Stations

Nearby Weather Stations

Station Location Temp. Windchill Dew Point Humidity Wind Precip. Elev Updated Type
                   

Watches & Warnings

Winter Weather Advisory
Issued: 2:44 AM MST Feb. 27, 2017 – National Weather Service

... Winter Weather Advisory now in effect until 5 PM MST this
afternoon...

* amounts... snow accumulation of 2 to 4 inches.

* Timing... through this afternoon.

* Impacts... the heavy snow will create slippery and snow covered
roadways. Cold and snowy conditions are expected to stress
Newborn livestock.

Precautionary/preparedness actions...

A Winter Weather Advisory for snow means that periods of snow
will cause primarily travel difficulties. Be prepared for snow
covered roads and limited visibilities, and use caution while
driving.